Time;durP1;ratioP1;P1;durP2;ratioP2;P2;SDS_P1;SDS_P2;PMS_P1;PMS_P2;Temp;Humidity;BMP_temperature;BMP_pressure;BME280_temperature;BME280_humidity;BME280_pressure;Samples;Min_cycle;Max_cycle;Signal;HPM_P1;HPM_P2
2023/04/17 00:00:39;;;;;;;12.00;7.00;;;;;;;12.79;76.96;100415.19;6210605;23;20440;-87
2023/04/17 00:03:04;;;;;;;11.15;5.65;;;;;;;12.92;74.47;100405.63;6187254;23;20032;-85
2023/04/17 00:05:30;;;;;;;9.07;5.22;;;;;;;12.84;74.41;100406.53;6183742;23;20024;-85
2023/04/17 00:07:58;;;;;;;8.30;5.63;;;;;;;12.65;74.62;100368.25;6159951;23;20135;-85
2023/04/17 00:10:24;;;;;;;7.50;5.18;;;;;;;12.80;75.18;100392.56;6162209;23;20091;-87
2023/04/17 00:12:50;;;;;;;8.82;5.25;;;;;;;12.83;74.91;100385.97;6159252;23;20091;-88
2023/04/17 00:15:15;;;;;;;8.50;5.43;;;;;;;12.70;74.84;100359.63;6184122;23;20071;-87
2023/04/17 00:17:41;;;;;;;7.95;5.57;;;;;;;12.92;74.51;100370.56;6184476;23;20063;-86
2023/04/17 00:20:09;;;;;;;9.10;5.80;;;;;;;12.91;74.45;100356.22;6183403;23;20468;-85
2023/04/17 00:22:36;;;;;;;8.98;5.82;;;;;;;12.95;74.87;100389.94;6209199;23;20429;-86
2023/04/17 00:25:02;;;;;;;9.80;6.00;;;;;;;12.97;75.33;100430.19;6185326;23;20510;-89
2023/04/17 00:27:27;;;;;;;11.60;6.50;;;;;;;12.96;77.07;100428.53;6184259;23;20457;-86
2023/04/17 00:29:53;;;;;;;10.32;6.78;;;;;;;12.97;77.48;100428.38;6183401;23;20004;-86
2023/04/17 00:32:19;;;;;;;12.35;7.47;;;;;;;12.84;78.63;100437.06;6185374;23;20004;-86
2023/04/17 00:34:44;;;;;;;11.82;8.05;;;;;;;12.81;79.63;100450.91;6209041;23;20070;-85
2023/04/17 00:37:10;;;;;;;11.35;8.02;;;;;;;12.73;79.78;100426.69;6158800;23;20031;-87
2023/04/17 00:39:35;;;;;;;10.27;7.88;;;;;;;12.54;80.35;100406.44;6186141;23;20024;-87
2023/04/17 00:42:01;;;;;;;13.43;8.93;;;;;;;12.31;82.38;100414.50;6210947;23;20001;-87
2023/04/17 00:44:28;;;;;;;16.25;9.57;;;;;;;12.18;84.07;100427.75;6193524;23;20311;-87
2023/04/17 00:46:54;;;;;;;19.00;10.70;;;;;;;11.83;85.21;100358.00;6185856;23;20521;-87
2023/04/17 00:49:20;;;;;;;18.00;9.98;;;;;;;11.88;86.00;100384.44;6187450;23;20009;-86
2023/04/17 00:51:45;;;;;;;15.95;10.35;;;;;;;11.93;86.79;100411.69;6186090;23;20087;-86
2023/04/17 00:54:11;;;;;;;15.95;10.23;;;;;;;11.92;86.63;100395.72;6160045;23;20013;-88
2023/04/17 00:56:37;;;;;;;15.75;10.02;;;;;;;11.89;86.33;100383.41;6158946;23;20012;-86
2023/04/17 00:59:02;;;;;;;15.98;10.15;;;;;;;11.85;86.27;100371.31;6186246;23;20087;-86
2023/04/17 01:01:28;;;;;;;17.55;10.10;;;;;;;11.90;86.45;100382.44;6182391;23;20015;-87
2023/04/17 01:03:53;;;;;;;17.98;10.60;;;;;;;11.91;86.51;100381.41;6183171;23;20322;-87
2023/04/17 01:06:19;;;;;;;18.42;9.93;;;;;;;11.96;86.47;100373.66;6188224;23;20004;-87
2023/04/17 01:08:45;;;;;;;12.63;8.77;;;;;;;12.07;85.62;100374.25;6188513;23;20004;-86
2023/04/17 01:11:10;;;;;;;16.80;9.02;;;;;;;12.02;84.34;100378.31;6215456;23;20000;-88
2023/04/17 01:13:46;;;;;;;13.25;8.70;;;;;;;12.10;84.54;100382.81;6191180;23;20217;-87
2023/04/17 01:16:12;;;;;;;16.42;9.13;;;;;;;12.12;84.49;100396.94;6165030;23;20158;-86
2023/04/17 01:18:37;;;;;;;13.38;8.82;;;;;;;12.17;84.66;100401.81;6185080;23;20043;-87
2023/04/17 01:21:03;;;;;;;14.98;9.27;;;;;;;11.97;85.80;100414.88;6184413;23;20027;-87
2023/04/17 01:23:29;;;;;;;16.88;9.88;;;;;;;12.01;86.22;100419.75;6183188;23;20099;-86
2023/04/17 01:25:54;;;;;;;14.73;8.98;;;;;;;12.00;86.48;100438.78;6183035;23;20005;-86
2023/04/17 01:28:20;;;;;;;14.55;10.00;;;;;;;11.94;86.70;100426.00;6207997;23;20059;-86
2023/04/17 01:30:45;;;;;;;15.90;9.90;;;;;;;11.82;86.64;100436.28;6210103;23;20399;-86
2023/04/17 01:33:11;;;;;;;15.85;10.13;;;;;;;11.62;87.29;100449.34;6185634;23;20373;-88
2023/04/17 01:35:36;;;;;;;21.90;11.40;;;;;;;11.33;88.79;100426.53;6187087;23;20088;-89
2023/04/17 01:38:02;;;;;;;24.33;10.85;;;;;;;11.49;88.45;100431.00;6161094;23;20512;-88
2023/04/17 01:40:28;;;;;;;17.83;10.68;;;;;;;11.54;88.36;100439.44;6186998;23;20374;-91
2023/04/17 01:42:53;;;;;;;18.52;10.95;;;;;;;11.59;87.94;100428.97;6168732;23;20008;-90
2023/04/17 01:45:20;;;;;;;17.13;10.40;;;;;;;11.72;87.39;100436.50;6193106;23;20260;-89
2023/04/17 01:47:46;;;;;;;16.83;10.43;;;;;;;11.78;87.40;100448.44;6201663;23;20386;-89
2023/04/17 01:50:11;;;;;;;20.00;11.10;;;;;;;11.87;87.44;100455.50;6203403;23;19996;-89
2023/04/17 01:52:38;;;;;;;21.05;11.23;;;;;;;11.68;87.73;100447.78;6163239;23;20035;-89
2023/04/17 01:55:04;;;;;;;16.90;10.70;;;;;;;11.62;87.73;100446.63;6189629;23;20156;-90
2023/04/17 01:57:31;;;;;;;;;;;;;;;11.82;87.59;100469.47;6186880;23;20001;-89
2023/04/17 01:59:57;;;;;;;17.85;10.80;;;;;;;11.67;87.76;100465.81;6188245;23;19974;-92
2023/04/17 02:02:22;;;;;;;20.73;11.13;;;;;;;11.60;87.69;100443.28;6165936;23;20090;-89
2023/04/17 02:04:48;;;;;;;19.50;10.68;;;;;;;11.78;87.25;100451.97;6163188;23;20421;-88
2023/04/17 02:07:13;;;;;;;18.15;11.25;;;;;;;11.82;87.21;100447.06;6187240;23;20063;-89
2023/04/17 02:09:39;;;;;;;19.77;10.63;;;;;;;11.65;87.46;100438.22;6189955;23;20016;-88
2023/04/17 02:12:05;;;;;;;23.92;11.52;;;;;;;11.49;87.92;100444.47;6165191;23;20066;-89
2023/04/17 02:14:31;;;;;;;19.25;11.90;;;;;;;11.50;88.56;100474.94;6205224;23;20075;-87
2023/04/17 02:16:58;;;;;;;21.63;12.13;;;;;;;11.56;88.71;100475.06;6180110;23;20533;-86
2023/04/17 02:19:24;;;;;;;17.27;11.07;;;;;;;11.43;89.02;100455.94;6204774;23;20406;-89
2023/04/17 02:21:50;;;;;;;16.08;11.35;;;;;;;11.54;88.91;100471.75;6180777;23;20008;-88
2023/04/17 02:24:16;;;;;;;20.40;11.52;;;;;;;11.43;88.65;100437.09;6202171;23;20008;-89
2023/04/17 02:26:41;;;;;;;21.92;11.45;;;;;;;11.50;88.81;100467.72;6179862;23;19996;-87
2023/04/17 02:29:07;;;;;;;19.05;11.30;;;;;;;11.60;88.25;100475.59;6183681;23;19996;-88
2023/04/17 02:31:32;;;;;;;19.20;11.13;;;;;;;11.24;89.03;100446.41;6205425;23;20023;-87
2023/04/17 02:33:58;;;;;;;17.70;10.57;;;;;;;11.22;88.78;100436.81;6199699;23;20001;-87
2023/04/17 02:36:25;;;;;;;17.08;10.68;;;;;;;11.37;88.96;100464.69;6226292;23;20062;-89
2023/04/17 02:38:50;;;;;;;16.48;10.48;;;;;;;11.18;89.16;100452.44;6162665;23;20009;-88
2023/04/17 02:41:16;;;;;;;20.90;11.18;;;;;;;11.27;89.51;100459.50;6186529;23;20028;-87
2023/04/17 02:43:42;;;;;;;18.77;10.95;;;;;;;11.51;89.09;100468.53;6167292;23;20434;-90
2023/04/17 02:46:07;;;;;;;16.17;10.13;;;;;;;11.27;89.52;100437.13;6187062;23;20418;-88
2023/04/17 02:48:33;;;;;;;17.55;10.30;;;;;;;11.20;89.57;100440.50;6160830;23;20009;-90
2023/04/17 02:50:58;;;;;;;20.52;11.13;;;;;;;11.20;89.63;100445.03;6185786;23;20028;-88
2023/04/17 02:53:24;;;;;;;18.27;10.98;;;;;;;11.31;89.30;100460.00;6163605;23;20016;-89
2023/04/17 02:55:50;;;;;;;20.02;10.75;;;;;;;11.34;88.81;100448.91;6165730;23;20047;-90
2023/04/17 02:58:15;;;;;;;19.02;11.60;;;;;;;11.58;88.64;100467.66;6167136;23;20008;-90
2023/04/17 03:00:41;;;;;;;19.52;12.18;;;;;;;11.60;87.93;100465.66;6186157;23;20004;-89
2023/04/17 03:03:07;;;;;;;26.70;13.77;;;;;;;11.64;88.07;100476.09;6162090;23;20027;-86
2023/04/17 03:05:32;;;;;;;24.65;14.68;;;;;;;11.76;87.54;100480.09;6187322;23;20005;-88
2023/04/17 03:07:58;;;;;;;23.05;14.23;;;;;;;11.77;87.05;100495.22;6186084;23;20024;-88
2023/04/17 03:10:24;;;;;;;26.88;14.70;;;;;;;11.78;86.71;100488.84;6159991;23;20036;-88
2023/04/17 03:12:49;;;;;;;30.65;15.02;;;;;;;11.51;86.91;100449.69;6160902;23;20028;-90
2023/04/17 03:15:15;;;;;;;34.30;18.42;;;;;;;11.85;85.95;100495.22;6185936;23;20024;-87
2023/04/17 03:17:40;;;;;;;33.08;20.15;;;;;;;11.90;85.43;100498.25;6186861;23;20454;-91
2023/04/17 03:20:07;;;;;;;35.15;21.17;;;;;;;11.71;85.59;100493.25;6162266;23;20016;-88
2023/04/17 03:22:32;;;;;;;36.70;21.17;;;;;;;11.66;85.91;100527.91;6185047;23;20024;-88
2023/04/17 03:24:58;;;;;;;32.60;19.52;;;;;;;11.66;86.04;100515.31;6161900;23;20429;-89
2023/04/17 03:27:24;;;;;;;30.63;17.98;;;;;;;11.80;85.77;100521.84;6161639;23;20028;-89
2023/04/17 03:29:53;;;;;;;27.95;17.75;;;;;;;11.87;85.56;100533.63;6160987;23;20008;-88
2023/04/17 03:32:19;;;;;;;30.48;17.95;;;;;;;11.87;85.21;100530.94;6184238;23;21409;-88
2023/04/17 03:34:44;;;;;;;30.48;17.65;;;;;;;11.88;85.20;100531.78;6161898;23;20013;-88
2023/04/17 03:37:12;;;;;;;28.17;17.08;;;;;;;11.76;85.30;100512.41;6160146;23;20080;-90
2023/04/17 03:39:38;;;;;;;26.08;15.98;;;;;;;12.08;84.60;100556.47;6211855;23;20127;-88
2023/04/17 03:42:03;;;;;;;27.50;15.73;;;;;;;12.11;83.93;100550.75;6214100;23;19997;-88
2023/04/17 03:44:29;;;;;;;23.20;14.38;;;;;;;12.20;83.66;100557.78;6190915;23;20008;-89
2023/04/17 03:46:55;;;;;;;19.77;12.07;;;;;;;12.13;83.10;100551.41;6199766;23;20094;-88
2023/04/17 03:49:21;;;;;;;14.15;9.13;;;;;;;12.26;82.44;100559.75;6200045;23;20000;-86
2023/04/17 03:51:46;;;;;;;16.67;9.15;;;;;;;12.20;82.77;100568.56;6221808;23;20021;-90
2023/04/17 03:54:12;;;;;;;18.55;9.15;;;;;;;12.24;82.59;100570.75;6202234;23;20071;-89
2023/04/17 03:56:37;;;;;;;15.45;8.80;;;;;;;12.11;82.56;100539.97;6216219;23;20035;-88
2023/04/17 03:59:03;;;;;;;13.60;8.60;;;;;;;12.15;83.15;100566.38;6186782;23;20026;-89
2023/04/17 04:01:29;;;;;;;15.75;9.25;;;;;;;12.14;82.71;100545.81;6161390;23;20036;-89
2023/04/17 04:03:54;;;;;;;16.73;8.77;;;;;;;12.23;82.59;100542.09;6184757;23;20460;-89
2023/04/17 04:06:21;;;;;;;14.88;9.02;;;;;;;12.06;83.58;100545.00;6159425;23;20004;-89
2023/04/17 04:08:50;;;;;;;19.20;9.30;;;;;;;12.29;82.60;100545.09;6216840;23;20008;-88
2023/04/17 04:11:16;;;;;;;16.67;9.00;;;;;;;12.42;82.33;100546.22;6187708;23;20391;-87
2023/04/17 04:13:41;;;;;;;19.83;9.02;;;;;;;12.29;82.09;100529.78;6184541;23;20100;-90
2023/04/17 04:16:07;;;;;;;19.15;9.63;;;;;;;12.14;82.77;100528.81;6185885;23;20116;-88
2023/04/17 04:18:33;;;;;;;15.73;9.45;;;;;;;12.29;82.58;100534.31;6161393;23;20027;-89
2023/04/17 04:21:01;;;;;;;15.63;9.35;;;;;;;12.11;83.48;100539.97;6162454;23;20140;-87
2023/04/17 04:23:29;;;;;;;18.58;9.55;;;;;;;11.97;84.13;100525.34;6186463;23;20024;-89
2023/04/17 04:25:55;;;;;;;17.80;10.32;;;;;;;11.81;84.27;100507.34;6184752;23;20047;-90
2023/04/17 04:28:22;;;;;;;18.17;9.75;;;;;;;11.98;84.17;100527.84;6161276;23;20043;-89
2023/04/17 04:30:49;;;;;;;21.10;10.18;;;;;;;11.99;84.27;100534.94;6187202;23;20012;-88
2023/04/17 04:33:21;;;;;;;20.95;10.20;;;;;;;12.13;84.06;100524.47;6185413;23;20158;-90
2023/04/17 04:35:47;;;;;;;20.27;10.50;;;;;;;12.10;83.63;100505.94;6137449;23;20044;-90
2023/04/17 04:38:14;;;;;;;20.15;10.35;;;;;;;12.13;83.72;100519.91;6160537;23;20448;-89
2023/04/17 04:40:42;;;;;;;19.58;10.57;;;;;;;12.10;83.56;100501.38;6210385;23;20005;-89
2023/04/17 04:43:08;;;;;;;20.02;10.15;;;;;;;12.10;83.09;100487.06;6188598;23;20467;-87
2023/04/17 04:45:34;;;;;;;18.20;9.88;;;;;;;12.31;82.89;100516.94;6185012;23;20008;-89
2023/04/17 04:48:00;;;;;;;17.83;9.95;;;;;;;12.26;82.88;100522.03;6160114;23;20001;-90
2023/04/17 04:50:25;;;;;;;19.38;9.80;;;;;;;12.23;82.88;100515.13;6161559;23;20095;-89
2023/04/17 04:52:51;;;;;;;19.70;9.43;;;;;;;12.32;82.72;100537.50;6184548;23;20063;-89
2023/04/17 04:55:18;;;;;;;21.77;9.95;;;;;;;12.50;82.55;100563.38;6184303;23;20028;-89
2023/04/17 04:57:44;;;;;;;20.23;10.18;;;;;;;12.27;82.60;100534.50;6186441;23;20021;-89
2023/04/17 05:00:12;;;;;;;30.02;11.02;;;;;;;12.60;81.89;100578.34;6184861;23;20368;-90
2023/04/17 05:02:37;;;;;;;26.42;11.05;;;;;;;12.33;82.44;100558.06;6184675;23;20011;-88
2023/04/17 05:05:03;;;;;;;22.92;10.98;;;;;;;12.44;82.40;100571.16;6162525;23;20017;-89
2023/04/17 05:07:29;;;;;;;19.35;10.88;;;;;;;12.63;82.12;100590.63;6186164;23;20074;-89
2023/04/17 05:09:54;;;;;;;24.73;11.13;;;;;;;12.68;81.43;100582.84;6161136;23;20004;-88
2023/04/17 05:12:20;;;;;;;20.63;9.50;;;;;;;12.79;80.78;100571.66;6187876;23;20000;-86
2023/04/17 05:14:46;;;;;;;24.23;9.95;;;;;;;12.95;80.21;100588.78;6211614;23;20437;-88
2023/04/17 05:17:12;;;;;;;21.73;9.98;;;;;;;13.08;79.85;100567.41;6187012;23;19996;-91
2023/04/17 05:19:37;;;;;;;20.52;9.77;;;;;;;13.14;79.17;100563.19;6164263;23;20007;-88
2023/04/17 05:22:03;;;;;;;25.95;11.05;;;;;;;13.00;79.21;100554.81;6187904;23;20084;-90
2023/04/17 05:24:29;;;;;;;20.92;9.85;;;;;;;13.12;78.89;100565.22;6168562;23;20008;-88
2023/04/17 05:26:55;;;;;;;18.67;10.27;;;;;;;13.35;78.09;100559.84;6191781;23;20062;-89
2023/04/17 05:29:23;;;;;;;24.17;10.00;;;;;;;13.33;78.10;100537.56;6190636;23;20000;-89
2023/04/17 05:31:49;;;;;;;19.73;9.27;;;;;;;13.42;77.71;100542.72;6193214;23;19996;-87
2023/04/17 05:34:15;;;;;;;18.08;9.68;;;;;;;13.43;77.08;100528.19;6191894;23;20086;-89
2023/04/17 05:36:40;;;;;;;22.05;10.07;;;;;;;13.54;76.91;100551.22;6192973;23;20409;-90
2023/04/17 05:39:06;;;;;;;20.35;9.10;;;;;;;13.26;76.71;100529.31;6193405;23;20329;-89
2023/04/17 05:41:32;;;;;;;;;;;;;;;13.37;77.49;100552.38;6167750;23;20006;-89
2023/04/17 05:43:57;;;;;;;19.40;9.52;;;;;;;13.45;77.19;100541.50;6216968;23;19946;-89
2023/04/17 05:46:23;;;;;;;15.68;8.88;;;;;;;13.40;77.02;100535.81;6179251;23;20024;-89
2023/04/17 05:48:49;;;;;;;20.45;9.30;;;;;;;13.23;76.48;100500.00;6173977;23;20008;-88
2023/04/17 05:51:14;;;;;;;23.83;9.80;;;;;;;13.41;76.14;100524.81;6190806;23;20073;-87
2023/04/17 05:53:43;;;;;;;19.83;9.23;;;;;;;13.35;76.02;100508.53;6194200;23;20058;-89
2023/04/17 05:56:09;;;;;;;21.08;9.40;;;;;;;13.36;76.15;100526.41;6184353;23;20000;-87
2023/04/17 05:58:35;;;;;;;20.65;9.02;;;;;;;13.45;75.63;100519.91;6204212;23;20035;-89
2023/04/17 06:01:01;;;;;;;16.20;9.27;;;;;;;13.43;75.52;100527.34;6193213;23;20261;-88
2023/04/17 06:03:26;;;;;;;22.48;8.93;;;;;;;13.55;74.89;100549.34;6166759;23;20038;-90
2023/04/17 06:05:52;;;;;;;20.98;8.00;;;;;;;13.47;74.61;100572.72;6201810;23;20004;-87
2023/04/17 06:08:18;;;;;;;15.07;7.53;;;;;;;13.37;73.27;100585.63;6194335;23;20008;-88
2023/04/17 06:10:48;;;;;;;14.70;7.35;;;;;;;13.25;73.33;100578.94;6216595;23;20331;-90
2023/04/17 06:13:14;;;;;;;21.80;8.25;;;;;;;13.18;76.19;100608.53;6193056;23;20474;-88
2023/04/17 06:15:40;;;;;;;21.77;8.40;;;;;;;13.06;77.06;100605.41;6168103;23;20091;-88
2023/04/17 06:18:05;;;;;;;16.95;7.88;;;;;;;13.18;76.93;100613.91;6191051;23;20012;-89
2023/04/17 06:20:31;;;;;;;18.73;8.15;;;;;;;13.00;77.14;100630.38;6187398;23;20012;-87
2023/04/17 06:22:57;;;;;;;25.42;7.65;;;;;;;12.82;77.68;100625.25;6212133;23;20024;-89
2023/04/17 06:25:22;;;;;;;15.85;8.27;;;;;;;12.65;78.33;100621.78;6167699;23;20171;-88
2023/04/17 06:27:48;;;;;;;14.85;6.97;;;;;;;12.58;77.53;100603.81;6194294;23;20430;-88
2023/04/17 06:30:15;;;;;;;17.55;7.38;;;;;;;12.56;78.02;100595.03;6192858;23;20251;-90
2023/04/17 06:32:42;;;;;;;16.70;7.22;;;;;;;12.72;78.46;100627.34;6166482;23;20098;-90
2023/04/17 06:35:08;;;;;;;14.60;7.25;;;;;;;12.66;78.48;100617.22;6170326;23;20000;-89
2023/04/17 06:37:36;;;;;;;20.45;7.75;;;;;;;12.66;78.73;100590.25;6194936;23;20057;-89
2023/04/17 06:40:02;;;;;;;12.05;6.88;;;;;;;12.64;78.33;100613.88;6192363;23;20008;-88
2023/04/17 06:42:28;;;;;;;14.10;6.85;;;;;;;12.38;77.82;100588.00;6193484;23;20103;-89
2023/04/17 06:44:55;;;;;;;22.83;7.13;;;;;;;12.50;77.84;100610.03;6192146;23;20074;-87
2023/04/17 06:47:20;;;;;;;14.73;7.00;;;;;;;12.25;78.69;100580.50;6190984;23;20071;-88
2023/04/17 06:49:46;;;;;;;15.93;7.45;;;;;;;12.50;79.30;100607.34;6194012;23;20071;-89
2023/04/17 06:52:11;;;;;;;17.95;7.10;;;;;;;12.53;79.26;100634.00;6194729;23;20026;-90
2023/04/17 06:54:37;;;;;;;15.98;7.15;;;;;;;12.26;80.06;100616.38;6191366;23;20448;-87
2023/04/17 06:57:05;;;;;;;17.60;6.78;;;;;;;12.19;78.83;100616.22;6194022;23;20004;-88
2023/04/17 06:59:31;;;;;;;17.25;7.40;;;;;;;12.06;79.58;100610.53;6195837;23;20055;-88
2023/04/17 07:01:57;;;;;;;22.23;8.05;;;;;;;12.04;80.39;100608.00;6243840;23;20030;-88
2023/04/17 07:04:23;;;;;;;12.60;7.45;;;;;;;12.18;80.94;100605.63;6193281;23;20012;-89
2023/04/17 07:06:48;;;;;;;16.13;7.05;;;;;;;12.25;80.51;100612.00;6190698;23;20000;-88
2023/04/17 07:09:14;;;;;;;16.70;7.40;;;;;;;12.01;80.56;100592.19;6166365;23;20409;-89
2023/04/17 07:11:40;;;;;;;16.08;7.50;;;;;;;12.09;81.50;100620.13;6171056;23;20008;-88
2023/04/17 07:14:05;;;;;;;16.92;7.78;;;;;;;12.09;82.13;100612.06;6220674;23;20031;-88
2023/04/17 07:16:31;;;;;;;17.30;6.90;;;;;;;12.11;81.07;100616.25;6190888;23;20368;-88
2023/04/17 07:18:57;;;;;;;13.68;7.28;;;;;;;12.17;81.36;100623.63;6216167;23;20004;-89
2023/04/17 07:21:22;;;;;;;15.18;6.78;;;;;;;12.28;80.05;100619.75;6215226;23;20334;-88
2023/04/17 07:23:48;;;;;;;12.77;6.85;;;;;;;12.13;80.27;100603.44;6187005;23;20020;-89
2023/04/17 07:26:14;;;;;;;18.13;6.90;;;;;;;12.24;80.99;100618.41;6160049;23;20123;-89
2023/04/17 07:28:39;;;;;;;17.90;7.18;;;;;;;12.08;82.00;100613.03;6185037;23;20456;-87
2023/04/17 07:31:07;;;;;;;18.83;6.75;;;;;;;11.91;82.20;100596.91;6187755;23;20003;-89
2023/04/17 07:33:36;;;;;;;18.77;6.88;;;;;;;11.84;82.67;100601.28;6186673;23;20020;-90
2023/04/17 07:36:02;;;;;;;13.15;6.10;;;;;;;11.70;82.88;100592.03;6185605;23;20056;-89
2023/04/17 07:38:33;;;;;;;18.23;7.30;;;;;;;11.54;83.81;100589.34;6193153;23;20488;-86
2023/04/17 07:40:58;;;;;;;17.05;7.32;;;;;;;11.77;84.21;100628.03;6199450;23;20009;-85
2023/04/17 07:43:27;;;;;;;17.67;7.90;;;;;;;11.36;86.66;100597.59;6192628;23;20008;-88
2023/04/17 07:45:54;;;;;;;19.52;7.45;;;;;;;11.40;87.27;100628.53;6214481;23;20445;-89
2023/04/17 07:48:21;;;;;;;;;;;;;;;11.49;87.69;100649.06;6186603;23;20000;-88
2023/04/17 07:50:49;;;;;;;15.38;6.70;;;;;;;11.32;86.71;100601.63;6185101;23;19931;-89
2023/04/17 07:53:14;;;;;;;17.73;7.28;;;;;;;11.63;86.66;100663.72;6187467;23;20094;-91
2023/04/17 07:55:40;;;;;;;22.02;7.00;;;;;;;11.53;87.23;100642.34;6185125;23;20341;-90
2023/04/17 07:58:10;;;;;;;16.42;7.13;;;;;;;11.58;87.14;100639.16;6160985;23;20473;-90
2023/04/17 08:00:37;;;;;;;14.55;6.82;;;;;;;11.63;87.11;100631.41;6185232;23;20016;-90
2023/04/17 08:03:02;;;;;;;13.90;7.30;;;;;;;11.60;87.20;100616.44;6169729;23;20021;-90
2023/04/17 08:05:28;;;;;;;17.05;7.38;;;;;;;11.53;86.96;100620.81;6161393;23;20520;-88
2023/04/17 08:07:54;;;;;;;17.17;7.57;;;;;;;11.70;87.00;100645.06;6166799;23;20004;-88
2023/04/17 08:10:19;;;;;;;17.70;7.90;;;;;;;11.46;87.57;100624.34;6163350;23;20410;-89
2023/04/17 08:12:48;;;;;;;16.48;7.80;;;;;;;11.55;87.62;100634.97;6188843;23;20442;-86
2023/04/17 08:15:13;;;;;;;18.00;7.82;;;;;;;11.47;87.17;100626.91;6191380;23;20031;-91
2023/04/17 08:17:41;;;;;;;20.50;7.30;;;;;;;11.47;88.13;100621.50;6168625;23;20413;-90
2023/04/17 08:20:09;;;;;;;16.90;7.35;;;;;;;11.41;88.31;100651.78;6169756;23;20398;-91
2023/04/17 08:22:44;;;;;;;19.63;6.75;;;;;;;11.45;88.19;100645.06;6171900;23;20583;-90
2023/04/17 08:25:10;;;;;;;20.92;8.23;;;;;;;11.09;89.79;100604.97;6206883;23;20088;-92
2023/04/17 08:27:36;;;;;;;17.63;8.15;;;;;;;10.90;90.60;100605.25;6184289;23;20012;-92
2023/04/17 08:30:04;;;;;;;13.18;6.88;;;;;;;11.08;90.30;100638.28;6205621;23;20024;-92
2023/04/17 08:32:36;;;;;;;15.68;7.20;;;;;;;10.98;90.99;100622.28;6195924;23;20004;-90
2023/04/17 08:35:05;;;;;;;15.52;7.43;;;;;;;10.91;92.55;100610.50;6170903;23;20028;-92
2023/04/17 08:37:31;;;;;;;15.02;7.55;;;;;;;11.07;91.85;100635.72;6163446;23;20004;-94
2023/04/17 08:40:05;;;;;;;16.85;7.53;;;;;;;11.27;92.47;100671.28;6160868;23;20005;-91
2023/04/17 08:42:43;;;;;;;15.60;8.43;;;;;;;11.39;93.30;100692.31;6166980;23;20023;-91
2023/04/17 08:45:10;;;;;;;16.38;7.45;;;;;;;11.25;92.93;100662.53;6162652;23;20004;-92
2023/04/17 08:47:41;;;;;;;16.48;7.55;;;;;;;11.08;93.56;100686.69;6161347;23;20146;-91
2023/04/17 08:50:11;;;;;;;19.20;8.43;;;;;;;11.10;94.22;100665.03;6190056;23;20000;-91
2023/04/17 08:52:47;;;;;;;14.75;7.50;;;;;;;11.33;93.36;100694.81;6190279;23;20087;-92
2023/04/17 08:55:21;;;;;;;15.07;7.22;;;;;;;11.34;92.12;100688.44;6190626;23;19997;-91
2023/04/17 08:58:02;;;;;;;17.15;7.63;;;;;;;11.16;92.59;100640.13;6186054;23;20004;-91
2023/04/17 09:00:31;;;;;;;17.75;8.35;;;;;;;11.29;90.74;100662.03;6161968;23;20004;-92
2023/04/17 09:03:01;;;;;;;16.38;8.18;;;;;;;11.19;92.42;100623.63;6193551;23;20091;-90
2023/04/17 09:05:32;;;;;;;16.02;8.02;;;;;;;11.39;92.25;100640.34;6164915;23;20019;-91
2023/04/17 09:08:20;;;;;;;13.30;7.65;;;;;;;11.20;91.75;100610.03;6138416;23;20552;-91
2023/04/17 09:10:49;;;;;;;15.93;8.00;;;;;;;11.50;91.32;100666.94;6163601;23;20027;-91
2023/04/17 09:13:16;;;;;;;16.58;7.75;;;;;;;11.60;92.26;100664.06;6185474;23;20059;-92
2023/04/17 09:15:46;;;;;;;14.40;7.03;;;;;;;11.51;90.12;100609.38;6187178;23;20012;-92
2023/04/17 09:18:29;;;;;;;15.80;7.95;;;;;;;11.67;90.07;100610.38;6187982;23;20111;-91
2023/04/17 09:21:03;;;;;;;15.65;7.40;;;;;;;11.79;90.33;100599.09;6186975;23;20067;-91
2023/04/17 09:23:30;;;;;;;13.00;8.00;;;;;;;12.10;89.49;100621.81;6193375;23;20028;-90
2023/04/17 09:26:09;;;;;;;10.68;6.55;;;;;;;11.95;89.18;100571.31;6160405;23;20023;-90
2023/04/17 09:28:34;;;;;;;10.73;6.40;;;;;;;12.18;87.30;100563.34;6185970;23;20505;-91
2023/04/17 09:31:05;;;;;;;11.85;6.13;;;;;;;12.41;88.27;100581.47;6185776;23;20008;-91
2023/04/17 09:33:30;;;;;;;11.82;6.88;;;;;;;12.56;87.94;100585.09;6160631;23;20012;-91
2023/04/17 09:36:20;;;;;;;10.98;5.38;;;;;;;12.29;84.37;100540.56;6185532;23;20195;-90
2023/04/17 09:38:46;;;;;;;11.00;5.20;;;;;;;12.31;84.77;100575.41;6189257;23;20005;-91
2023/04/17 09:41:27;;;;;;;9.60;4.60;;;;;;;12.49;83.87;100604.84;6161162;23;20009;-91
2023/04/17 09:43:54;;;;;;;8.43;5.50;;;;;;;12.32;85.09;100586.03;6187312;23;20047;-91
2023/04/17 09:46:40;;;;;;;12.02;5.97;;;;;;;12.50;87.09;100606.50;6186982;23;20430;-89
2023/04/17 09:49:14;;;;;;;12.63;6.43;;;;;;;12.38;85.23;100593.41;6210785;23;20063;-92
2023/04/17 09:51:40;;;;;;;11.98;5.88;;;;;;;12.28;86.08;100590.09;6191164;23;20012;-91
2023/04/17 09:54:06;;;;;;;10.73;6.05;;;;;;;12.42;86.41;100616.31;6188125;23;20070;-91
2023/04/17 09:56:36;;;;;;;12.65;5.75;;;;;;;12.29;83.48;100612.47;6190934;23;20013;-91
2023/04/17 09:59:02;;;;;;;10.55;5.88;;;;;;;12.42;85.43;100602.84;6192219;23;20075;-91
2023/04/17 10:01:34;;;;;;;11.23;5.47;;;;;;;12.45;83.06;100574.69;6175195;23;20017;-89
2023/04/17 10:04:00;;;;;;;10.50;5.40;;;;;;;12.26;83.28;100551.69;6204861;23;20017;-91
2023/04/17 10:06:26;;;;;;;12.07;6.38;;;;;;;12.00;84.92;100489.97;6176765;23;20109;-91
2023/04/17 10:08:52;;;;;;;10.60;6.97;;;;;;;12.08;85.51;100478.31;6190792;23;20530;-92
2023/04/17 10:11:18;;;;;;;13.90;6.22;;;;;;;12.31;85.79;100503.47;6186841;23;20361;-93
2023/04/17 10:13:48;;;;;;;;;;;;;;;12.31;85.33;100518.81;6190144;23;20354;-92
2023/04/17 10:16:14;;;;;;;13.60;6.10;;;;;;;11.80;85.16;100470.66;6218810;23;19982;-90
2023/04/17 10:18:40;;;;;;;11.13;6.50;;;;;;;11.75;86.22;100503.50;6165289;23;20428;-89
2023/04/17 10:21:21;;;;;;;13.80;6.55;;;;;;;11.67;85.69;100497.28;6188173;23;20009;-91
2023/04/17 10:23:47;;;;;;;12.90;6.45;;;;;;;11.79;86.79;100533.59;6186932;23;20016;-92
2023/04/17 10:26:39;;;;;;;11.48;7.00;;;;;;;12.00;86.93;100541.16;6161955;23;20005;-91
2023/04/17 10:29:07;;;;;;;11.50;6.70;;;;;;;11.96;87.04;100502.97;6181348;23;20429;-92
2023/04/17 10:32:07;;;;;;;10.43;6.45;;;;;;;12.18;85.20;100527.47;6159232;23;20442;-91
2023/04/17 10:34:33;;;;;;;17.10;7.25;;;;;;;11.94;84.63;100459.19;6212394;23;20013;-90
2023/04/17 10:37:00;;;;;;;11.82;6.72;;;;;;;12.17;85.42;100488.03;6157040;23;20004;-93
2023/04/17 10:39:25;;;;;;;10.70;6.10;;;;;;;12.46;84.58;100525.97;6191688;23;20008;-90
2023/04/17 10:42:04;;;;;;;15.02;5.95;;;;;;;12.27;83.57;100493.22;6187374;23;20187;-91
2023/04/17 10:44:39;;;;;;;13.60;6.75;;;;;;;12.39;84.32;100518.78;6211479;23;20008;-90
2023/04/17 10:47:06;;;;;;;11.07;6.57;;;;;;;12.44;83.43;100528.00;6187786;23;20015;-91
2023/04/17 10:49:50;;;;;;;13.90;6.43;;;;;;;12.45;81.80;100535.09;6185981;23;20028;-89
2023/04/17 10:52:31;;;;;;;11.38;6.50;;;;;;;12.49;83.38;100514.00;6185456;23;20012;-92
2023/04/17 10:55:22;;;;;;;14.30;7.28;;;;;;;12.59;83.31;100538.03;6213252;23;20308;-90
2023/04/17 10:57:53;;;;;;;9.18;5.95;;;;;;;12.65;81.43;100524.69;6166008;23;20017;-93
2023/04/17 11:00:20;;;;;;;11.02;6.57;;;;;;;12.65;81.71;100519.28;6213194;23;20004;-91
2023/04/17 11:02:49;;;;;;;12.10;6.35;;;;;;;12.68;82.72;100507.31;6212733;23;20412;-90
2023/04/17 11:05:16;;;;;;;13.13;6.00;;;;;;;12.82;80.82;100520.03;6186474;23;20068;-90
2023/04/17 11:07:43;;;;;;;12.18;6.57;;;;;;;13.10;79.15;100527.59;6211963;23;20004;-89
2023/04/17 11:10:08;;;;;;;12.55;6.30;;;;;;;13.38;78.29;100530.59;6189464;23;20365;-92
2023/04/17 11:12:34;;;;;;;12.93;6.18;;;;;;;13.58;77.78;100530.06;6160815;23;20034;-88
2023/04/17 11:15:02;;;;;;;14.50;7.28;;;;;;;13.90;77.84;100545.94;6186721;23;20327;-89
2023/04/17 11:17:27;;;;;;;12.15;6.18;;;;;;;13.98;74.10;100519.84;6162726;23;20092;-91